Time;durP1;ratioP1;P1;durP2;ratioP2;P2;SDS_P1;SDS_P2;PMS_P1;PMS_P2;Temp;Humidity;BMP_temperature;BMP_pressure;BME280_temperature;BME280_humidity;BME280_pressure;Samples;Min_cycle;Max_cycle;Signal;HPM_P1;HPM_P2
2022/04/02 00:01:58;;;;;;;3.53;2.20;;;8.30;99.90;;;;;;5032387;28;20175;-67
2022/04/02 00:04:24;;;;;;;4.27;2.07;;;8.30;99.90;;;;;;5032730;28;20584;-69
2022/04/02 00:06:50;;;;;;;6.17;2.30;;;8.30;99.90;;;;;;5032410;28;20190;-68
2022/04/02 00:09:16;;;;;;;5.07;1.90;;;8.40;99.90;;;;;;5032849;28;20194;-68
2022/04/02 00:11:42;;;;;;;16.87;2.63;;;8.50;99.90;;;;;;5032609;28;20524;-68
2022/04/02 00:14:07;;;;;;;8.20;2.60;;;8.70;99.90;;;;;;5032392;28;20175;-67
2022/04/02 00:16:33;;;;;;;6.97;2.83;;;8.70;99.90;;;;;;5032104;28;20222;-69
2022/04/02 00:18:59;;;;;;;13.33;3.20;;;8.70;99.90;;;;;;5014626;28;20187;-68
2022/04/02 00:21:24;;;;;;;9.27;2.67;;;8.60;99.90;;;;;;5032796;28;20187;-69
2022/04/02 00:23:50;;;;;;;13.03;3.43;;;8.50;99.90;;;;;;5032091;28;20226;-67
2022/04/02 00:26:19;;;;;;;7.80;3.03;;;8.40;99.90;;;;;;5027890;28;20203;-66
2022/04/02 00:28:48;;;;;;;9.57;3.27;;;8.20;99.90;;;;;;5012889;28;20214;-67
2022/04/02 00:31:15;;;;;;;10.50;3.07;;;8.10;99.90;;;;;;5012461;28;20184;-67
2022/04/02 00:33:44;;;;;;;18.13;3.63;;;8.10;99.90;;;;;;5013120;28;20538;-67
2022/04/02 00:36:10;;;;;;;5.87;2.77;;;8.00;99.90;;;;;;5026232;28;20183;-67
2022/04/02 00:38:37;;;;;;;5.23;2.33;;;8.00;99.90;;;;;;5032191;28;20733;-66
2022/04/02 00:41:03;;;;;;;6.77;2.50;;;8.00;99.90;;;;;;5014143;28;20257;-68
2022/04/02 00:43:35;;;;;;;4.83;2.27;;;8.00;99.90;;;;;;5032272;28;20226;-68
2022/04/02 00:46:09;;;;;;;5.20;2.00;;;8.10;99.90;;;;;;5031652;28;20198;-67
2022/04/02 00:48:35;;;;;;;7.27;2.30;;;8.20;99.90;;;;;;5032336;28;20171;-68
2022/04/02 00:51:02;;;;;;;4.97;2.10;;;8.30;99.90;;;;;;5031309;28;20235;-67
2022/04/02 00:53:31;;;;;;;3.13;1.73;;;8.40;99.90;;;;;;5014122;28;20194;-67
2022/04/02 00:55:59;;;;;;;6.17;2.10;;;8.60;99.90;;;;;;5031535;28;20187;-68
2022/04/02 00:58:25;;;;;;;12.30;2.13;;;8.80;99.90;;;;;;5032095;28;20330;-67
2022/04/02 01:00:51;;;;;;;3.17;1.63;;;9.10;99.90;;;;;;5031877;28;20722;-68
2022/04/02 01:03:18;;;;;;;7.50;1.90;;;9.30;99.90;;;;;;5031585;28;20931;-68
2022/04/02 01:05:45;;;;;;;3.50;1.83;;;9.40;99.90;;;;;;5014062;28;20181;-68
2022/04/02 01:08:10;;;;;;;4.50;1.80;;;9.50;99.90;;;;;;5031263;28;20176;-68
2022/04/02 01:10:41;;;;;;;4.73;1.50;;;9.50;99.90;;;;;;5031905;28;20277;-68
2022/04/02 01:13:08;;;;;;;2.07;1.43;;;9.40;99.90;;;;;;5031656;28;20168;-68
2022/04/02 01:15:34;;;;;;;3.27;1.70;;;9.30;99.90;;;;;;5031316;28;20188;-68
2022/04/02 01:18:00;;;;;;;4.33;2.00;;;9.30;99.90;;;;;;5031031;28;20304;-68
2022/04/02 01:20:29;;;;;;;2.67;1.43;;;9.20;99.90;;;;;;5031731;28;20298;-68
2022/04/02 01:22:56;;;;;;;11.53;1.77;;;9.10;99.90;;;;;;5013586;28;20182;-68
2022/04/02 01:25:22;;;;;;;4.90;1.50;;;9.00;99.90;;;;;;5013827;28;20204;-68
2022/04/02 01:27:48;;;;;;;7.83;2.23;;;8.80;99.90;;;;;;5014646;28;20932;-68
2022/04/02 01:30:15;;;;;;;8.37;1.90;;;8.70;99.90;;;;;;5011645;28;20188;-67
2022/04/02 01:32:42;;;;;;;5.97;2.20;;;8.60;99.90;;;;;;5012284;28;20189;-68
2022/04/02 01:35:09;;;;;;;6.67;1.97;;;8.50;99.90;;;;;;5017197;28;20173;-68
2022/04/02 01:37:36;;;;;;;4.13;2.03;;;8.50;99.90;;;;;;5031614;28;20215;-68
2022/04/02 01:40:06;;;;;;;4.93;2.30;;;8.40;99.90;;;;;;5031467;28;20179;-68
2022/04/02 01:42:32;;;;;;;5.27;1.90;;;8.30;99.90;;;;;;5013854;28;20202;-68
2022/04/02 01:44:59;;;;;;;9.90;2.20;;;8.30;99.90;;;;;;5030973;28;20207;-68
2022/04/02 01:47:25;;;;;;;24.40;2.90;;;8.30;99.90;;;;;;5013453;28;20546;-68
2022/04/02 01:49:51;;;;;;;8.27;3.17;;;8.30;99.90;;;;;;5030823;28;20249;-63
2022/04/02 01:52:19;;;;;;;19.27;3.10;;;8.20;99.90;;;;;;5031292;28;20662;-68
2022/04/02 01:54:48;;;;;;;10.20;3.20;;;8.20;99.90;;;;;;5031376;28;20635;-67
2022/04/02 01:57:16;;;;;;;18.83;3.67;;;8.20;99.90;;;;;;5031244;28;20344;-68
2022/04/02 01:59:44;;;;;;;4.90;2.27;;;8.20;99.90;;;;;;5031746;28;20206;-68
2022/04/02 02:02:11;;;;;;;7.77;3.27;;;8.20;99.90;;;;;;5031102;28;20244;-67
2022/04/02 02:04:37;;;;;;;7.80;2.70;;;8.20;99.90;;;;;;5031495;28;20259;-68
2022/04/02 02:07:04;;;;;;;5.37;2.60;;;8.10;99.90;;;;;;5031139;28;20265;-68
2022/04/02 02:09:30;;;;;;;12.43;2.80;;;8.10;99.90;;;;;;5031294;28;20266;-67
2022/04/02 02:11:56;;;;;;;7.13;2.50;;;8.00;99.90;;;;;;5012884;28;20258;-68
2022/04/02 02:14:22;;;;;;;31.67;5.57;;;8.00;99.90;;;;;;5031363;28;20241;-68
2022/04/02 02:16:49;;;;;;;10.30;3.33;;;8.00;99.90;;;;;;5031154;28;20211;-68
2022/04/02 02:19:15;;;;;;;12.60;3.37;;;7.90;99.90;;;;;;5030916;28;20269;-68
2022/04/02 02:21:41;;;;;;;20.67;4.07;;;7.90;99.90;;;;;;5029912;28;20266;-67
2022/04/02 02:24:06;;;;;;;9.63;3.33;;;7.80;99.90;;;;;;5030832;28;20182;-68
2022/04/02 02:26:34;;;;;;;10.00;3.00;;;7.80;99.90;;;;;;5024563;28;20238;-68
2022/04/02 02:29:00;;;;;;;20.40;4.40;;;7.90;99.90;;;;;;5013921;28;20533;-68
2022/04/02 02:31:26;;;;;;;9.73;3.03;;;7.90;99.90;;;;;;5014940;28;20245;-68
2022/04/02 02:36:36;;;;;;;9.63;3.17;;;7.90;99.90;;;;;;5032231;28;20269;-67
2022/04/02 02:39:02;;;;;;;8.87;3.00;;;7.80;99.90;;;;;;5034020;28;20211;-67
2022/04/02 02:41:28;;;;;;;7.03;3.10;;;7.80;99.90;;;;;;5034336;28;20277;-67
2022/04/02 02:43:54;;;;;;;7.27;3.07;;;7.80;99.90;;;;;;5034268;28;20179;-63
2022/04/02 02:46:19;;;;;;;9.60;3.40;;;7.70;99.90;;;;;;5016275;28;20290;-68
2022/04/02 02:48:46;;;;;;;10.43;3.47;;;7.80;99.90;;;;;;5016289;28;20279;-68
2022/04/02 02:51:13;;;;;;;14.97;4.37;;;7.80;99.90;;;;;;5033537;28;20227;-67
2022/04/02 02:53:39;;;;;;;13.77;5.30;;;7.80;99.90;;;;;;5034087;28;20211;-69
2022/04/02 02:56:05;;;;;;;14.80;6.13;;;7.80;99.90;;;;;;5033633;28;20620;-68
2022/04/02 02:58:31;;;;;;;9.23;5.20;;;7.90;99.90;;;;;;5034087;28;20272;-68
2022/04/02 03:00:57;;;;;;;17.83;7.37;;;7.90;99.90;;;;;;5032065;28;20187;-66
2022/04/02 03:03:23;;;;;;;19.20;11.83;;;7.90;99.90;;;;;;5034005;28;20241;-67
2022/04/02 03:05:49;;;;;;;39.87;17.10;;;7.80;99.90;;;;;;5033906;28;20183;-67
2022/04/02 03:08:18;;;;;;;20.47;12.40;;;7.80;99.90;;;;;;5033332;28;20213;-67
2022/04/02 03:10:47;;;;;;;20.23;10.23;;;7.80;99.90;;;;;;5033566;28;20185;-67
2022/04/02 03:13:14;;;;;;;23.00;7.53;;;7.80;99.90;;;;;;5015498;28;20222;-66
2022/04/02 03:15:40;;;;;;;8.20;5.07;;;7.80;99.90;;;;;;5033631;28;20518;-67
2022/04/02 03:18:08;;;;;;;7.30;4.30;;;7.80;99.90;;;;;;5033072;28;20215;-68
2022/04/02 03:20:36;;;;;;;8.13;4.30;;;7.90;99.90;;;;;;5033570;28;20194;-67
2022/04/02 03:23:03;;;;;;;8.17;4.20;;;7.90;99.90;;;;;;5015528;28;20218;-68
2022/04/02 03:25:29;;;;;;;16.67;4.70;;;8.00;99.90;;;;;;5032993;28;20504;-68
2022/04/02 03:27:55;;;;;;;31.17;4.97;;;8.00;99.90;;;;;;5015365;28;20215;-63
2022/04/02 03:30:22;;;;;;;19.53;5.17;;;8.00;99.90;;;;;;5013590;28;20259;-67
2022/04/02 03:32:49;;;;;;;8.77;4.00;;;8.00;99.90;;;;;;5013979;28;20604;-66
2022/04/02 03:35:16;;;;;;;8.30;4.10;;;8.00;99.90;;;;;;5020262;28;20278;-68
2022/04/02 03:37:47;;;;;;;15.00;4.23;;;8.10;99.90;;;;;;5032847;28;20670;-68
2022/04/02 03:40:20;;;;;;;12.53;4.77;;;8.10;99.90;;;;;;5031918;28;20167;-69
2022/04/02 03:42:45;;;;;;;19.20;5.17;;;8.10;99.90;;;;;;5032766;28;20250;-68
2022/04/02 03:45:14;;;;;;;12.67;4.77;;;8.10;99.90;;;;;;5032656;28;20262;-68
2022/04/02 03:47:40;;;;;;;36.80;7.47;;;8.10;99.90;;;;;;5032828;28;20262;-67
2022/04/02 03:50:06;;;;;;;16.67;5.10;;;8.20;99.90;;;;;;5032081;28;20322;-68
2022/04/02 03:52:32;;;;;;;16.93;5.30;;;8.10;99.90;;;;;;5032466;28;20631;-67
2022/04/02 03:54:58;;;;;;;18.93;5.90;;;8.10;99.90;;;;;;5032278;28;20644;-69
2022/04/02 03:57:25;;;;;;;18.97;5.93;;;8.10;99.90;;;;;;5032218;28;20226;-68
2022/04/02 03:59:51;;;;;;;24.57;6.47;;;8.10;99.90;;;;;;5032591;28;20274;-68
2022/04/02 04:02:17;;;;;;;19.37;5.80;;;8.10;99.90;;;;;;5032521;28;20183;-67
2022/04/02 04:04:43;;;;;;;53.40;8.57;;;8.10;99.90;;;;;;5015290;28;20175;-70
2022/04/02 04:07:09;;;;;;;21.93;5.47;;;8.10;99.90;;;;;;5032767;28;20202;-68
2022/04/02 04:09:40;;;;;;;13.80;5.07;;;8.10;99.90;;;;;;5015261;28;20620;-67
2022/04/02 04:12:07;;;;;;;12.63;6.10;;;8.10;99.90;;;;;;5015389;28;20204;-67
2022/04/02 04:14:33;;;;;;;18.10;5.50;;;8.10;99.90;;;;;;5032721;28;20183;-67
2022/04/02 04:16:59;;;;;;;18.10;6.17;;;8.20;99.90;;;;;;5031936;28;20556;-67
2022/04/02 04:19:24;;;;;;;15.40;5.00;;;8.20;99.90;;;;;;5032686;28;20215;-68
2022/04/02 04:21:50;;;;;;;12.03;4.60;;;8.30;99.90;;;;;;5032517;28;20581;-69
2022/04/02 04:24:16;;;;;;;11.27;5.00;;;8.30;99.90;;;;;;5014297;28;20195;-68
2022/04/02 04:26:43;;;;;;;12.83;5.13;;;8.40;99.90;;;;;;5024597;28;20197;-67
2022/04/02 04:29:09;;;;;;;9.23;5.37;;;8.50;99.90;;;;;;5012316;28;20177;-70
2022/04/02 04:31:36;;;;;;;14.03;6.83;;;8.60;99.90;;;;;;5012551;28;20179;-68
2022/04/02 04:34:02;;;;;;;13.60;6.83;;;8.60;99.90;;;;;;5012204;28;20189;-68
2022/04/02 04:36:29;;;;;;;15.50;8.07;;;8.60;99.90;;;;;;5029045;28;20210;-69
2022/04/02 04:38:56;;;;;;;25.27;9.27;;;8.60;99.90;;;;;;5032080;28;20627;-66
2022/04/02 04:41:22;;;;;;;29.53;12.60;;;8.50;99.90;;;;;;5014614;28;20219;-68
2022/04/02 04:43:48;;;;;;;30.60;13.83;;;8.50;99.90;;;;;;5032137;28;20176;-67
2022/04/02 04:46:18;;;;;;;33.27;15.53;;;8.50;99.90;;;;;;5031941;28;20395;-68
2022/04/02 04:48:45;;;;;;;39.37;18.27;;;8.40;99.90;;;;;;5014155;28;20183;-67
2022/04/02 04:51:12;;;;;;;46.17;19.33;;;8.40;99.90;;;;;;5013827;28;20670;-67
2022/04/02 04:53:38;;;;;;;38.10;15.73;;;8.40;99.90;;;;;;5031916;28;20233;-68
2022/04/02 04:56:05;;;;;;;43.80;19.30;;;8.30;99.90;;;;;;5031799;28;20178;-67
2022/04/02 04:58:31;;;;;;;45.40;17.90;;;8.30;99.90;;;;;;5031790;28;20226;-67
2022/04/02 05:00:58;;;;;;;46.20;18.90;;;8.20;99.90;;;;;;5031716;28;20523;-68
2022/04/02 05:03:24;;;;;;;54.93;19.47;;;8.20;99.90;;;;;;5031793;28;20175;-68
2022/04/02 05:05:52;;;;;;;48.40;18.67;;;8.20;99.90;;;;;;5031818;28;20302;-68
2022/04/02 05:08:18;;;;;;;56.20;19.80;;;8.20;99.90;;;;;;5031259;28;20180;-68
2022/04/02 05:10:44;;;;;;;45.97;18.77;;;8.20;99.90;;;;;;4997703;28;20194;-68
2022/04/02 05:13:13;;;;;;;57.60;23.03;;;8.20;99.90;;;;;;5013324;28;20267;-68
2022/04/02 05:15:41;;;;;;;63.67;23.50;;;8.20;99.90;;;;;;5031783;28;20174;-68
2022/04/02 05:18:08;;;;;;;55.83;22.90;;;8.20;99.90;;;;;;5031302;28;20305;-68
2022/04/02 05:20:34;;;;;;;57.83;22.83;;;8.20;99.90;;;;;;5014139;28;20261;-69
2022/04/02 05:23:00;;;;;;;58.73;22.90;;;8.20;99.90;;;;;;5031348;28;20182;-68
2022/04/02 05:25:26;;;;;;;55.37;24.60;;;8.20;99.90;;;;;;5031363;28;20183;-70
2022/04/02 05:27:54;;;;;;;56.73;22.10;;;8.30;99.90;;;;;;4996469;28;20648;-69
2022/04/02 05:30:21;;;;;;;54.40;24.67;;;8.30;99.90;;;;;;5011831;28;20183;-68
2022/04/02 05:32:46;;;;;;;58.70;25.23;;;8.30;99.90;;;;;;5011511;28;20181;-68
2022/04/02 05:35:12;;;;;;;61.03;26.03;;;8.40;99.90;;;;;;5000177;28;20205;-66
2022/04/02 05:37:45;;;;;;;52.43;23.63;;;8.40;99.90;;;;;;5031778;28;20208;-69
2022/04/02 05:40:12;;;;;;;50.63;22.70;;;8.50;99.90;;;;;;5013405;28;20698;-68
2022/04/02 05:42:38;;;;;;;47.17;21.80;;;8.60;99.90;;;;;;5031415;28;20186;-69
2022/04/02 05:45:05;;;;;;;49.00;21.03;;;8.70;99.90;;;;;;5012919;28;20234;-70
2022/04/02 05:47:44;;;;;;;48.10;22.00;;;8.80;99.90;;;;;;5031090;28;20531;-67
2022/04/02 05:50:11;;;;;;;41.57;20.43;;;8.80;99.90;;;;;;5009859;28;20586;-70
2022/04/02 05:52:38;;;;;;;44.20;22.00;;;8.80;99.90;;;;;;5010266;28;20199;-68
2022/04/02 05:55:08;;;;;;;66.67;22.97;;;8.90;99.90;;;;;;5011224;28;20248;-67
2022/04/02 05:57:35;;;;;;;46.40;21.37;;;9.00;99.90;;;;;;5011377;28;20259;-67
2022/04/02 06:00:03;;;;;;;37.33;15.87;;;9.10;99.90;;;;;;5010737;28;20207;-68
2022/04/02 06:02:29;;;;;;;39.13;17.10;;;8.80;99.90;;;;;;5010483;28;20193;-66
2022/04/02 06:04:55;;;;;;;29.40;16.00;;;8.70;99.90;;;;;;5013706;28;20574;-63
2022/04/02 06:07:21;;;;;;;35.13;18.10;;;8.70;99.90;;;;;;5013420;28;20202;-69
2022/04/02 06:09:47;;;;;;;32.13;17.10;;;8.80;99.90;;;;;;5014634;28;20630;-68
2022/04/02 06:12:12;;;;;;;28.73;14.00;;;9.10;99.90;;;;;;5014684;28;20181;-68
2022/04/02 06:14:38;;;;;;;31.30;14.60;;;9.10;99.90;;;;;;4996938;28;20637;-68
2022/04/02 06:17:04;;;;;;;37.13;14.00;;;9.10;99.90;;;;;;5014326;28;20221;-68
2022/04/02 06:19:30;;;;;;;26.20;13.20;;;9.20;99.90;;;;;;5014802;28;20181;-67
2022/04/02 06:21:56;;;;;;;25.90;14.13;;;9.20;99.90;;;;;;5013070;28;20189;-63
2022/04/02 06:24:21;;;;;;;25.67;13.63;;;9.20;99.90;;;;;;5014246;28;20271;-68
2022/04/02 06:26:47;;;;;;;29.83;13.60;;;8.90;99.90;;;;;;5005890;28;20187;-68
2022/04/02 06:29:13;;;;;;;21.80;11.83;;;8.80;99.90;;;;;;4994034;28;20552;-68
2022/04/02 06:31:39;;;;;;;24.77;12.77;;;8.80;99.90;;;;;;4994592;28;20192;-68
2022/04/02 06:34:05;;;;;;;36.10;14.73;;;8.60;99.90;;;;;;4993268;28;20548;-69
2022/04/02 06:36:31;;;;;;;23.90;12.37;;;8.60;99.90;;;;;;5011323;28;20176;-67
2022/04/02 06:38:57;;;;;;;21.13;12.00;;;8.60;99.90;;;;;;5012812;28;20270;-63
2022/04/02 06:41:23;;;;;;;25.70;12.00;;;8.70;99.90;;;;;;5014568;28;20617;-68
2022/04/02 06:43:49;;;;;;;24.90;12.73;;;8.60;99.90;;;;;;5014308;28;20283;-70
2022/04/02 06:46:15;;;;;;;26.83;13.90;;;8.50;99.90;;;;;;5012032;28;20573;-69
2022/04/02 06:48:40;;;;;;;27.97;14.10;;;8.50;99.90;;;;;;5013883;28;20631;-68
2022/04/02 06:51:07;;;;;;;34.03;15.40;;;8.50;99.90;;;;;;5032403;28;20227;-69
2022/04/02 06:53:34;;;;;;;24.83;14.40;;;8.60;99.90;;;;;;5016053;28;20187;-68
2022/04/02 06:56:00;;;;;;;23.13;14.27;;;8.60;99.90;;;;;;5033361;28;20180;-68
2022/04/02 06:58:29;;;;;;;22.33;12.77;;;8.60;99.90;;;;;;5033781;28;20268;-67
2022/04/02 07:00:55;;;;;;;26.53;14.03;;;8.40;99.90;;;;;;5033021;28;20179;-69
2022/04/02 07:03:20;;;;;;;33.70;15.30;;;8.30;99.90;;;;;;5032967;28;20937;-68
2022/04/02 07:05:46;;;;;;;33.40;14.23;;;8.40;99.90;;;;;;5015891;28;20192;-69
2022/04/02 07:08:12;;;;;;;26.40;13.73;;;8.50;99.90;;;;;;4998679;28;20293;-68
2022/04/02 07:10:38;;;;;;;23.57;13.30;;;8.50;99.90;;;;;;5015702;28;20220;-68
2022/04/02 07:13:03;;;;;;;15.63;9.47;;;8.40;99.90;;;;;;5033250;28;20183;-69
2022/04/02 07:15:29;;;;;;;27.90;13.87;;;8.50;99.90;;;;;;5032207;28;20545;-69
2022/04/02 07:17:55;;;;;;;23.67;12.57;;;8.20;99.90;;;;;;5033396;28;20314;-69
2022/04/02 07:20:26;;;;;;;19.27;11.53;;;8.20;99.90;;;;;;5015191;28;20214;-70
2022/04/02 07:22:55;;;;;;;24.90;12.73;;;8.10;99.90;;;;;;5033526;28;20180;-68
2022/04/02 07:25:21;;;;;;;23.83;13.17;;;8.00;99.90;;;;;;5033330;28;20249;-70
2022/04/02 07:27:46;;;;;;;20.37;10.10;;;8.00;99.90;;;;;;5017538;28;20241;-69
2022/04/02 07:30:14;;;;;;;13.67;9.07;;;7.90;99.90;;;;;;5013069;28;20180;-68
2022/04/02 07:32:39;;;;;;;17.60;10.47;;;8.10;99.90;;;;;;5013088;28;20234;-69
2022/04/02 07:35:06;;;;;;;20.93;9.70;;;8.30;99.90;;;;;;5018318;28;20568;-69
2022/04/02 07:38:03;;;;;;;19.53;11.40;;;8.60;99.90;;;;;;5032752;28;20256;-69
2022/04/02 07:40:53;;;;;;;18.67;9.07;;;8.70;99.90;;;;;;5015130;28;20293;-70
2022/04/02 07:43:41;;;;;;;19.93;9.00;;;9.00;99.90;;;;;;4965311;28;20190;-70
2022/04/02 07:46:21;;;;;;;14.30;8.77;;;9.10;99.90;;;;;;5032119;28;20182;-70
2022/04/02 07:48:48;;;;;;;14.00;10.07;;;9.10;99.90;;;;;;5032065;28;20265;-68
2022/04/02 07:51:16;;;;;;;13.97;10.10;;;9.10;99.90;;;;;;5032455;28;20235;-69
2022/04/02 07:53:50;;;;;;;12.67;9.87;;;9.30;99.90;;;;;;5032601;28;20185;-69
2022/04/02 07:56:38;;;;;;;13.83;8.77;;;9.50;99.90;;;;;;5031990;28;20186;-69
2022/04/02 07:59:10;;;;;;;14.33;8.00;;;9.60;99.90;;;;;;4997203;28;20203;-67
2022/04/02 08:01:35;;;;;;;12.63;7.50;;;9.60;99.90;;;;;;5032266;28;20183;-68
2022/04/02 08:04:04;;;;;;;13.73;8.30;;;9.80;99.90;;;;;;5032098;28;20182;-65
2022/04/02 08:06:34;;;;;;;9.67;7.40;;;10.00;99.90;;;;;;5032439;28;20194;-68
2022/04/02 08:09:00;;;;;;;11.57;7.33;;;9.80;99.90;;;;;;5032218;28;20204;-69
2022/04/02 08:11:27;;;;;;;11.73;7.10;;;9.70;99.90;;;;;;5031114;28;20185;-68
2022/04/02 08:13:54;;;;;;;8.93;7.03;;;9.70;99.90;;;;;;5032445;28;20268;-67
2022/04/02 08:16:20;;;;;;;9.60;6.47;;;9.50;99.90;;;;;;5031974;28;20534;-70
2022/04/02 08:18:47;;;;;;;12.43;7.10;;;9.00;99.90;;;;;;5032179;28;20633;-70
2022/04/02 08:21:14;;;;;;;10.03;6.77;;;9.20;99.90;;;;;;5031474;28;20179;-67
2022/04/02 08:23:40;;;;;;;9.30;6.57;;;9.10;99.90;;;;;;5032209;28;20563;-68
2022/04/02 08:26:27;;;;;;;13.37;6.90;;;9.10;99.90;;;;;;5028341;28;20181;-68
2022/04/02 08:29:20;;;;;;;10.27;7.93;;;9.00;99.90;;;;;;5012365;28;20211;-69
2022/04/02 08:31:56;;;;;;;15.63;6.90;;;9.50;99.90;;;;;;5011755;28;20583;-68
2022/04/02 08:34:56;;;;;;;8.80;6.37;;;9.90;99.90;;;;;;5012062;28;20194;-69
2022/04/02 08:38:02;;;;;;;14.80;6.70;;;9.90;99.90;;;;;;5012205;28;20412;-69
2022/04/02 08:40:45;;;;;;;10.93;7.83;;;10.00;99.90;;;;;;5012380;28;20185;-69
2022/04/02 08:43:50;;;;;;;10.00;7.93;;;10.00;99.90;;;;;;5012175;28;20236;-69
2022/04/02 08:46:37;;;;;;;14.07;7.00;;;10.00;99.90;;;;;;4993720;28;20199;-69
2022/04/02 08:49:27;;;;;;;9.07;6.67;;;9.70;99.90;;;;;;5011436;28;20177;-69
2022/04/02 08:52:16;;;;;;;7.80;5.60;;;9.80;99.90;;;;;;5011400;28;20186;-67
2022/04/02 08:54:54;;;;;;;9.77;7.53;;;9.80;99.90;;;;;;4982821;28;20201;-69
2022/04/02 08:57:32;;;;;;;12.07;8.37;;;9.70;99.90;;;;;;5011595;28;20218;-68
2022/04/02 09:00:09;;;;;;;12.57;8.20;;;9.80;99.90;;;;;;5011766;28;20175;-67
2022/04/02 09:02:53;;;;;;;11.50;8.17;;;9.90;99.90;;;;;;5011243;28;20197;-71
2022/04/02 09:05:56;;;;;;;11.80;9.00;;;9.80;99.90;;;;;;5011717;28;20225;-69
2022/04/02 09:08:50;;;;;;;10.43;8.53;;;10.10;99.90;;;;;;5011847;28;20650;-68
2022/04/02 09:11:25;;;;;;;16.00;9.20;;;10.00;99.90;;;;;;5009577;28;20202;-67
2022/04/02 09:14:27;;;;;;;11.73;8.90;;;9.90;99.90;;;;;;5011294;28;20195;-68
2022/04/02 09:17:06;;;;;;;14.90;9.53;;;9.70;99.90;;;;;;5011271;28;20221;-69
2022/04/02 09:19:53;;;;;;;11.10;8.90;;;9.50;99.90;;;;;;5011309;28;20169;-66
2022/04/02 09:22:32;;;;;;;19.63;9.50;;;9.50;99.90;;;;;;5011196;28;20273;-70
2022/04/02 09:25:20;;;;;;;19.80;11.30;;;9.60;99.90;;;;;;5011578;28;20193;-68
2022/04/02 09:27:48;;;;;;;9.00;6.47;;;9.90;99.90;;;;;;5027873;28;20178;-69
2022/04/02 09:30:55;;;;;;;11.30;8.87;;;9.90;99.90;;;;;;5030904;28;20184;-66
2022/04/02 09:33:59;;;;;;;19.47;10.20;;;9.70;99.90;;;;;;5012889;28;20187;-69
2022/04/02 09:36:36;;;;;;;9.97;8.00;;;10.00;99.90;;;;;;5009674;28;20185;-69
2022/04/02 09:39:05;;;;;;;11.87;8.33;;;10.10;99.90;;;;;;4997106;28;20194;-69
2022/04/02 09:42:03;;;;;;;13.67;8.27;;;10.30;99.90;;;;;;5014982;28;20175;-69
2022/04/02 09:45:00;;;;;;;11.67;7.43;;;10.00;99.90;;;;;;5014914;28;20187;-68
2022/04/02 09:47:47;;;;;;;12.17;8.37;;;10.00;99.90;;;;;;5014826;28;20179;-69
2022/04/02 09:50:19;;;;;;;11.50;8.27;;;9.90;99.90;;;;;;5014425;28;20607;-66
2022/04/02 09:53:04;;;;;;;12.73;8.40;;;10.10;99.90;;;;;;5015180;28;20274;-69
2022/04/02 09:55:59;;;;;;;11.83;8.00;;;10.10;99.90;;;;;;4997133;28;20203;-68
2022/04/02 09:58:34;;;;;;;17.53;7.53;;;10.20;99.90;;;;;;4988913;28;20277;-69
2022/04/02 10:01:08;;;;;;;8.37;6.93;;;10.40;99.90;;;;;;5014665;28;20193;-68
2022/04/02 10:04:12;;;;;;;8.80;6.67;;;10.60;99.90;;;;;;5015120;28;20259;-68
2022/04/02 10:06:48;;;;;;;9.73;6.30;;;10.50;99.90;;;;;;5014788;28;20261;-67
2022/04/02 10:09:16;;;;;;;20.13;7.80;;;10.50;99.90;;;;;;5014562;28;20200;-67
2022/04/02 10:11:52;;;;;;;19.10;7.57;;;10.60;99.90;;;;;;4996983;28;20401;-68
2022/04/02 10:14:23;;;;;;;12.57;6.97;;;10.50;99.90;;;;;;5014404;28;20215;-68
2022/04/02 10:16:53;;;;;;;11.57;7.13;;;10.80;99.90;;;;;;5014157;28;20196;-69
2022/04/02 10:19:29;;;;;;;10.30;6.70;;;10.60;99.90;;;;;;5014548;28;20164;-70
2022/04/02 10:21:58;;;;;;;10.47;6.67;;;10.40;99.90;;;;;;5014720;28;20258;-71
2022/04/02 10:24:25;;;;;;;12.00;6.87;;;10.20;99.90;;;;;;5013964;28;20191;-69
2022/04/02 10:26:56;;;;;;;14.53;8.37;;;10.30;99.90;;;;;;5023650;28;20560;-70
2022/04/02 10:29:40;;;;;;;18.03;9.33;;;10.60;99.90;;;;;;5034915;28;20178;-70
2022/04/02 10:32:08;;;;;;;17.27;8.03;;;11.00;99.90;;;;;;5034166;28;20176;-71
2022/04/02 10:34:50;;;;;;;16.03;8.33;;;11.60;99.90;;;;;;5032885;28;20180;-73
2022/04/02 10:37:17;;;;;;;13.13;7.60;;;12.00;99.90;;;;;;5014149;28;20195;-72
2022/04/02 10:39:46;;;;;;;10.80;6.67;;;12.00;99.90;;;;;;4996712;28;20177;-71
2022/04/02 10:42:19;;;;;;;10.60;6.80;;;12.40;99.90;;;;;;5014030;28;20567;-70
2022/04/02 10:44:50;;;;;;;8.43;6.53;;;12.30;99.90;;;;;;5014094;28;20229;-70
2022/04/02 10:47:20;;;;;;;10.87;6.87;;;12.00;99.90;;;;;;4996207;28;20659;-72
2022/04/02 10:49:51;;;;;;;15.67;7.77;;;12.00;99.90;;;;;;5013641;28;20241;-72
2022/04/02 10:52:20;;;;;;;9.10;7.40;;;12.10;99.90;;;;;;4996277;28;20178;-73
2022/04/02 10:54:49;;;;;;;10.30;7.77;;;12.40;99.90;;;;;;5013966;28;20183;-72
2022/04/02 10:57:16;;;;;;;9.70;7.83;;;12.40;99.90;;;;;;5014004;28;20681;-69
2022/04/02 10:59:46;;;;;;;17.47;10.77;;;12.60;99.90;;;;;;5014410;28;20412;-72
2022/04/02 11:02:42;;;;;;;11.30;7.73;;;12.80;99.90;;;;;;5014058;28;20198;-67
2022/04/02 11:05:10;;;;;;;11.63;8.20;;;12.90;99.90;;;;;;5014064;28;20183;-72
2022/04/02 11:07:42;;;;;;;14.73;8.43;;;13.10;99.90;;;;;;5013345;28;20180;-70
2022/04/02 11:10:11;;;;;;;10.33;7.27;;;13.10;99.90;;;;;;4996294;28;20212;-72
2022/04/02 11:12:42;;;;;;;10.23;8.07;;;13.10;99.90;;;;;;4996229;28;20187;-72
2022/04/02 11:15:12;;;;;;;12.87;7.70;;;12.90;99.90;;;;;;4996354;28;20215;-70
2022/04/02 11:17:41;;;;;;;15.57;7.97;;;13.00;99.90;;;;;;5013562;28;20273;-72
2022/04/02 11:20:16;;;;;;;6.97;5.97;;;13.10;99.90;;;;;;5013811;28;20187;-70
2022/04/02 11:23:02;;;;;;;12.27;7.40;;;13.40;99.90;;;;;;5013651;28;20229;-70
2022/04/02 11:25:35;;;;;;;8.30;7.13;;;13.70;99.90;;;;;;5012976;28;20172;-71
2022/04/02 11:28:17;;;;;;;17.13;7.10;;;14.20;99.90;;;;;;5032020;28;20191;-69
2022/04/02 11:30:42;;;;;;;12.33;7.93;;;14.70;98.80;;;;;;5033198;28;20187;-72
2022/04/02 11:33:24;;;;;;;12.00;8.80;;;14.80;98.40;;;;;;5032926;28;20531;-71
2022/04/02 11:35:51;;;;;;;13.10;8.10;;;15.10;98.40;;;;;;5003891;28;20175;-71
2022/04/02 11:38:26;;;;;;;11.47;7.30;;;15.40;97.50;;;;;;4995242;28;20211;-73
2022/04/02 11:40:55;;;;;;;8.97;8.07;;;15.60;96.60;;;;;;4995650;28;20175;-71
2022/04/02 11:43:31;;;;;;;10.67;8.60;;;15.50;96.60;;;;;;5012938;28;20179;-73
2022/04/02 11:46:01;;;;;;;13.00;7.73;;;15.70;96.30;;;;;;5012844;28;20282;-74
2022/04/02 11:48:49;;;;;;;11.23;7.60;;;17.00;94.30;;;;;;5012726;28;20180;-71
2022/04/02 11:51:16;;;;;;;10.27;7.03;;;18.30;91.70;;;;;;5012773;28;20293;-66
2022/04/02 11:53:44;;;;;;;18.17;9.00;;;19.30;86.60;;;;;;5012729;28;20654;-72
2022/04/02 11:56:25;;;;;;;26.95;9.40;;;20.40;82.30;;;;;;5012543;28;20278;-73
2022/04/02 11:58:51;;;;;;;6.75;6.05;;;20.70;78.30;;;;;;5012492;28;20704;-71
2022/04/02 12:01:20;;;;;;;11.38;6.95;;;21.20;74.50;;;;;;5011964;28;20628;-71
2022/04/02 12:03:46;;;;;;;9.48;6.15;;;21.40;72.50;;;;;;5012800;28;20199;-71
2022/04/02 12:06:12;;;;;;;15.20;6.82;;;23.10;69.40;;;;;;5012678;28;20261;-70
2022/04/02 12:08:41;;;;;;;9.45;7.03;;;23.80;65.30;;;;;;5019250;28;20195;-74
2022/04/02 12:11:10;;;;;;;9.70;6.60;;;24.30;62.80;;;;;;5029388;28;20633;-72
2022/04/02 12:13:36;;;;;;;7.93;6.90;;;24.60;60.70;;;;;;5045454;28;20573;-69
2022/04/02 12:16:15;;;;;;;8.55;6.60;;;24.40;58.10;;;;;;5052065;28;20194;-72
2022/04/02 12:18:57;;;;;;;16.92;8.25;;;24.30;57.90;;;;;;5051858;28;20198;-74
2022/04/02 12:21:33;;;;;;;8.35;6.22;;;25.20;57.30;;;;;;5021959;28;20624;-74
2022/04/02 12:24:03;;;;;;;9.45;6.32;;;25.20;56.10;;;;;;5012077;28;20176;-74
2022/04/02 12:26:30;;;;;;;13.02;6.72;;;25.30;55.50;;;;;;5017712;28;20182;-73
2022/04/02 12:28:58;;;;;;;23.88;7.88;;;25.40;54.10;;;;;;5024069;28;20320;-62
2022/04/02 12:31:29;;;;;;;14.07;7.47;;;24.70;54.80;;;;;;5020391;28;20609;-66
2022/04/02 12:33:55;;;;;;;13.23;7.18;;;24.50;56.70;;;;;;5018821;28;20239;-65
2022/04/02 12:36:31;;;;;;;13.93;7.53;;;26.60;53.80;;;;;;5020032;28;20217;-66
2022/04/02 12:39:10;;;;;;;17.85;9.02;;;25.80;53.50;;;;;;5019431;28;20222;-64
2022/04/02 12:41:47;;;;;;;19.77;7.95;;;26.10;53.20;;;;;;5019957;28;20191;-64
2022/04/02 12:44:17;;;;;;;10.38;7.13;;;26.70;51.50;;;;;;5020440;28;20194;-62
2022/04/02 12:46:43;;;;;;;14.63;7.38;;;27.20;51.00;;;;;;5021049;28;20648;-69
2022/04/02 12:49:08;;;;;;;27.45;11.18;;;27.70;49.20;;;;;;5002558;28;20284;-71
2022/04/02 12:51:34;;;;;;;19.95;10.77;;;27.10;49.40;;;;;;5020530;28;20558;-69
2022/04/02 12:54:03;;;;;;;23.23;8.32;;;26.30;50.00;;;;;;5019347;28;20198;-70
2022/04/02 12:56:32;;;;;;;17.58;9.13;;;25.90;52.10;;;;;;5019506;28;20183;-70
2022/04/02 12:58:59;;;;;;;13.10;7.68;;;25.50;51.60;;;;;;5019375;28;20365;-70
2022/04/02 13:01:33;;;;;;;9.90;5.50;;;24.80;52.40;;;;;;5001598;28;20199;-69
2022/04/02 13:03:59;;;;;;;7.45;5.35;;;24.20;52.30;;;;;;5017980;28;20186;-69